sensor_id;sensor_type;location;lat;lon;timestamp;P1;durP1;ratioP1;P2;durP2;ratioP2
17967;SDS011;9109;48.050;11.696;2024-03-23T00:55:32;3.40;;;2.20;;
17967;SDS011;9109;48.050;11.696;2024-03-23T00:58:34;7.43;;;2.30;;
17967;SDS011;9109;48.050;11.696;2024-03-23T01:01:36;3.20;;;1.80;;
17967;SDS011;9109;48.050;11.696;2024-03-23T01:04:39;3.80;;;2.00;;
17967;SDS011;9109;48.050;11.696;2024-03-23T01:07:40;6.13;;;2.13;;
17967;SDS011;9109;48.050;11.696;2024-03-23T01:10:50;2.87;;;1.70;;
17967;SDS011;9109;48.050;11.696;2024-03-23T01:13:57;3.27;;;1.63;;
17967;SDS011;9109;48.050;11.696;2024-03-23T01:16:58;3.20;;;1.90;;
17967;SDS011;9109;48.050;11.696;2024-03-23T01:20:01;3.33;;;1.83;;
17967;SDS011;9109;48.050;11.696;2024-03-23T01:23:03;6.37;;;2.10;;
17967;SDS011;9109;48.050;11.696;2024-03-23T01:26:07;5.27;;;1.90;;
17967;SDS011;9109;48.050;11.696;2024-03-23T01:29:09;3.77;;;2.20;;
17967;SDS011;9109;48.050;11.696;2024-03-23T01:32:11;3.57;;;2.17;;
17967;SDS011;9109;48.050;11.696;2024-03-23T01:35:15;3.87;;;2.10;;
17967;SDS011;9109;48.050;11.696;2024-03-23T01:38:21;5.23;;;2.40;;
17967;SDS011;9109;48.050;11.696;2024-03-23T01:41:25;5.93;;;2.10;;
17967;SDS011;9109;48.050;11.696;2024-03-23T01:44:27;2.50;;;1.80;;
17967;SDS011;9109;48.050;11.696;2024-03-23T01:47:28;3.60;;;2.07;;
17967;SDS011;9109;48.050;11.696;2024-03-23T01:50:31;3.07;;;1.80;;
17967;SDS011;9109;48.050;11.696;2024-03-23T01:53:34;4.17;;;1.80;;
17967;SDS011;9109;48.050;11.696;2024-03-23T01:56:37;2.93;;;1.80;;
17967;SDS011;9109;48.050;11.696;2024-03-23T01:59:41;2.93;;;1.90;;
17967;SDS011;9109;48.050;11.696;2024-03-23T02:02:46;4.13;;;1.90;;
17967;SDS011;9109;48.050;11.696;2024-03-23T02:05:48;3.87;;;2.10;;
17967;SDS011;9109;48.050;11.696;2024-03-23T02:08:50;4.43;;;2.03;;
17967;SDS011;9109;48.050;11.696;2024-03-23T02:11:53;3.73;;;2.10;;
17967;SDS011;9109;48.050;11.696;2024-03-23T02:14:55;4.77;;;2.03;;
17967;SDS011;9109;48.050;11.696;2024-03-23T02:17:58;4.07;;;2.30;;
17967;SDS011;9109;48.050;11.696;2024-03-23T02:20:59;4.50;;;2.20;;
17967;SDS011;9109;48.050;11.696;2024-03-23T02:24:06;7.63;;;2.40;;
17967;SDS011;9109;48.050;11.696;2024-03-23T02:27:07;3.20;;;2.00;;
17967;SDS011;9109;48.050;11.696;2024-03-23T02:30:10;3.23;;;1.90;;
17967;SDS011;9109;48.050;11.696;2024-03-23T02:33:12;5.33;;;1.90;;
17967;SDS011;9109;48.050;11.696;2024-03-23T02:36:16;3.20;;;1.97;;
17967;SDS011;9109;48.050;11.696;2024-03-23T02:39:20;3.50;;;1.93;;
17967;SDS011;9109;48.050;11.696;2024-03-23T02:42:24;2.63;;;1.70;;
17967;SDS011;9109;48.050;11.696;2024-03-23T02:45:25;5.87;;;2.10;;
17967;SDS011;9109;48.050;11.696;2024-03-23T02:48:29;6.17;;;2.13;;
17967;SDS011;9109;48.050;11.696;2024-03-23T02:51:36;7.80;;;2.13;;
17967;SDS011;9109;48.050;11.696;2024-03-23T02:54:39;2.90;;;2.17;;
17967;SDS011;9109;48.050;11.696;2024-03-23T02:57:47;3.10;;;1.90;;
17967;SDS011;9109;48.050;11.696;2024-03-23T03:00:53;2.90;;;1.70;;
17967;SDS011;9109;48.050;11.696;2024-03-23T03:03:54;3.57;;;2.10;;
17967;SDS011;9109;48.050;11.696;2024-03-23T03:06:56;4.83;;;1.90;;
17967;SDS011;9109;48.050;11.696;2024-03-23T03:10:00;2.57;;;1.90;;
17967;SDS011;9109;48.050;11.696;2024-03-23T03:13:03;3.73;;;1.93;;
17967;SDS011;9109;48.050;11.696;2024-03-23T03:16:12;2.73;;;1.60;;
17967;SDS011;9109;48.050;11.696;2024-03-23T03:19:13;3.50;;;2.00;;
17967;SDS011;9109;48.050;11.696;2024-03-23T03:22:18;7.33;;;1.90;;
17967;SDS011;9109;48.050;11.696;2024-03-23T03:25:21;2.67;;;1.67;;
17967;SDS011;9109;48.050;11.696;2024-03-23T03:28:36;3.50;;;1.80;;
17967;SDS011;9109;48.050;11.696;2024-03-23T03:31:51;5.70;;;2.27;;
17967;SDS011;9109;48.050;11.696;2024-03-23T03:34:56;4.27;;;1.97;;
17967;SDS011;9109;48.050;11.696;2024-03-23T03:37:59;5.77;;;1.80;;
17967;SDS011;9109;48.050;11.696;2024-03-23T03:41:03;7.67;;;1.90;;
17967;SDS011;9109;48.050;11.696;2024-03-23T03:44:06;4.03;;;1.90;;
17967;SDS011;9109;48.050;11.696;2024-03-23T03:47:14;6.27;;;1.67;;
17967;SDS011;9109;48.050;11.696;2024-03-23T03:50:21;2.53;;;1.60;;
17967;SDS011;9109;48.050;11.696;2024-03-23T03:53:24;4.17;;;2.00;;
17967;SDS011;9109;48.050;11.696;2024-03-23T03:56:27;4.37;;;2.03;;
17967;SDS011;9109;48.050;11.696;2024-03-23T03:59:29;3.07;;;1.87;;
17967;SDS011;9109;48.050;11.696;2024-03-23T04:02:35;2.10;;;1.60;;
17967;SDS011;9109;48.050;11.696;2024-03-23T04:05:36;2.90;;;1.63;;
17967;SDS011;9109;48.050;11.696;2024-03-23T04:08:39;4.57;;;1.80;;
17967;SDS011;9109;48.050;11.696;2024-03-23T04:11:44;3.93;;;2.00;;
17967;SDS011;9109;48.050;11.696;2024-03-23T04:14:48;1.93;;;1.50;;
17967;SDS011;9109;48.050;11.696;2024-03-23T04:17:51;3.00;;;1.43;;
17967;SDS011;9109;48.050;11.696;2024-03-23T04:20:58;5.37;;;1.93;;
17967;SDS011;9109;48.050;11.696;2024-03-23T04:24:01;1.70;;;1.47;;
17967;SDS011;9109;48.050;11.696;2024-03-23T04:27:06;6.67;;;1.70;;
17967;SDS011;9109;48.050;11.696;2024-03-23T04:30:10;3.97;;;2.10;;
17967;SDS011;9109;48.050;11.696;2024-03-23T04:33:13;4.63;;;1.77;;
17967;SDS011;9109;48.050;11.696;2024-03-23T04:36:15;2.23;;;1.50;;
17967;SDS011;9109;48.050;11.696;2024-03-23T04:39:17;5.13;;;1.77;;
17967;SDS011;9109;48.050;11.696;2024-03-23T04:42:21;5.43;;;1.60;;
17967;SDS011;9109;48.050;11.696;2024-03-23T04:45:23;5.67;;;1.80;;
17967;SDS011;9109;48.050;11.696;2024-03-23T04:48:29;2.60;;;1.87;;
17967;SDS011;9109;48.050;11.696;2024-03-23T04:51:35;3.90;;;1.93;;
17967;SDS011;9109;48.050;11.696;2024-03-23T04:54:37;2.40;;;1.70;;
17967;SDS011;9109;48.050;11.696;2024-03-23T04:57:43;5.23;;;1.83;;
17967;SDS011;9109;48.050;11.696;2024-03-23T05:00:45;7.13;;;1.80;;
17967;SDS011;9109;48.050;11.696;2024-03-23T05:03:47;2.87;;;1.77;;
17967;SDS011;9109;48.050;11.696;2024-03-23T05:06:49;3.13;;;1.53;;
17967;SDS011;9109;48.050;11.696;2024-03-23T05:09:51;2.23;;;1.57;;
17967;SDS011;9109;48.050;11.696;2024-03-23T05:12:57;2.90;;;1.47;;
17967;SDS011;9109;48.050;11.696;2024-03-23T05:15:59;2.67;;;1.50;;
17967;SDS011;9109;48.050;11.696;2024-03-23T05:19:01;4.30;;;1.90;;
17967;SDS011;9109;48.050;11.696;2024-03-23T05:22:03;7.60;;;1.90;;
17967;SDS011;9109;48.050;11.696;2024-03-23T05:25:09;2.00;;;1.40;;
17967;SDS011;9109;48.050;11.696;2024-03-23T05:28:17;2.63;;;1.37;;
17967;SDS011;9109;48.050;11.696;2024-03-23T05:31:25;2.77;;;1.60;;
17967;SDS011;9109;48.050;11.696;2024-03-23T05:34:27;3.00;;;1.43;;
17967;SDS011;9109;48.050;11.696;2024-03-23T05:37:29;4.37;;;1.60;;
17967;SDS011;9109;48.050;11.696;2024-03-23T05:40:34;2.20;;;1.40;;
17967;SDS011;9109;48.050;11.696;2024-03-23T05:43:43;1.80;;;1.40;;
17967;SDS011;9109;48.050;11.696;2024-03-23T05:46:47;2.60;;;1.50;;
17967;SDS011;9109;48.050;11.696;2024-03-23T05:49:48;5.40;;;1.47;;
17967;SDS011;9109;48.050;11.696;2024-03-23T05:52:55;2.37;;;1.50;;
17967;SDS011;9109;48.050;11.696;2024-03-23T05:56:00;7.53;;;1.77;;
17967;SDS011;9109;48.050;11.696;2024-03-23T05:59:11;2.53;;;1.60;;
17967;SDS011;9109;48.050;11.696;2024-03-23T06:02:18;1.77;;;1.30;;
17967;SDS011;9109;48.050;11.696;2024-03-23T06:05:23;3.13;;;1.40;;
17967;SDS011;9109;48.050;11.696;2024-03-23T06:08:31;5.10;;;1.67;;
17967;SDS011;9109;48.050;11.696;2024-03-23T06:11:36;9.63;;;1.43;;
17967;SDS011;9109;48.050;11.696;2024-03-23T06:14:42;2.47;;;1.33;;
17967;SDS011;9109;48.050;11.696;2024-03-23T06:17:51;2.23;;;1.40;;
17967;SDS011;9109;48.050;11.696;2024-03-23T06:21:10;2.97;;;1.20;;
17967;SDS011;9109;48.050;11.696;2024-03-23T06:24:15;3.23;;;1.40;;
17967;SDS011;9109;48.050;11.696;2024-03-23T06:27:17;3.23;;;1.27;;
17967;SDS011;9109;48.050;11.696;2024-03-23T06:30:22;2.47;;;1.50;;
17967;SDS011;9109;48.050;11.696;2024-03-23T06:33:29;4.70;;;1.63;;
17967;SDS011;9109;48.050;11.696;2024-03-23T06:36:30;2.60;;;1.70;;
17967;SDS011;9109;48.050;11.696;2024-03-23T06:39:33;1.67;;;1.33;;
17967;SDS011;9109;48.050;11.696;2024-03-23T06:42:37;3.57;;;1.50;;
17967;SDS011;9109;48.050;11.696;2024-03-23T06:45:43;3.00;;;1.50;;
17967;SDS011;9109;48.050;11.696;2024-03-23T06:48:48;3.30;;;1.40;;
17967;SDS011;9109;48.050;11.696;2024-03-23T06:51:51;4.97;;;1.70;;
17967;SDS011;9109;48.050;11.696;2024-03-23T06:54:52;2.23;;;1.40;;
17967;SDS011;9109;48.050;11.696;2024-03-23T06:57:55;2.00;;;1.50;;
17967;SDS011;9109;48.050;11.696;2024-03-23T07:01:00;1.67;;;1.27;;
17967;SDS011;9109;48.050;11.696;2024-03-23T07:04:02;2.40;;;1.47;;
17967;SDS011;9109;48.050;11.696;2024-03-23T07:07:05;1.97;;;1.37;;
17967;SDS011;9109;48.050;11.696;2024-03-23T07:10:17;3.50;;;1.50;;
17967;SDS011;9109;48.050;11.696;2024-03-23T07:13:34;2.43;;;1.60;;
17967;SDS011;9109;48.050;11.696;2024-03-23T07:16:37;1.80;;;1.30;;
17967;SDS011;9109;48.050;11.696;2024-03-23T07:19:42;2.07;;;1.20;;
17967;SDS011;9109;48.050;11.696;2024-03-23T07:22:45;2.90;;;1.30;;
17967;SDS011;9109;48.050;11.696;2024-03-23T07:25:58;1.63;;;1.20;;
17967;SDS011;9109;48.050;11.696;2024-03-23T07:29:01;1.93;;;1.50;;
17967;SDS011;9109;48.050;11.696;2024-03-23T07:32:05;2.40;;;1.43;;
17967;SDS011;9109;48.050;11.696;2024-03-23T07:35:08;2.50;;;1.13;;
17967;SDS011;9109;48.050;11.696;2024-03-23T07:38:15;8.97;;;1.73;;
17967;SDS011;9109;48.050;11.696;2024-03-23T07:41:22;3.40;;;1.63;;
17967;SDS011;9109;48.050;11.696;2024-03-23T07:44:23;2.33;;;1.33;;
17967;SDS011;9109;48.050;11.696;2024-03-23T07:47:27;8.02;;;1.83;;
17967;SDS011;9109;48.050;11.696;2024-03-23T07:50:31;4.13;;;1.40;;
17967;SDS011;9109;48.050;11.696;2024-03-23T07:53:34;8.68;;;1.95;;
17967;SDS011;9109;48.050;11.696;2024-03-23T07:56:37;3.07;;;1.67;;
17967;SDS011;9109;48.050;11.696;2024-03-23T07:59:42;7.70;;;1.55;;
17967;SDS011;9109;48.050;11.696;2024-03-23T08:03:01;3.03;;;1.80;;
17967;SDS011;9109;48.050;11.696;2024-03-23T08:06:08;15.65;;;2.63;;
17967;SDS011;9109;48.050;11.696;2024-03-23T08:09:22;3.13;;;1.63;;
17967;SDS011;9109;48.050;11.696;2024-03-23T08:13:10;2.50;;;1.47;;
17967;SDS011;9109;48.050;11.696;2024-03-23T08:15:59;2.42;;;1.33;;
17967;SDS011;9109;48.050;11.696;2024-03-23T08:19:16;2.05;;;1.35;;
17967;SDS011;9109;48.050;11.696;2024-03-23T08:22:24;3.28;;;1.50;;
17967;SDS011;9109;48.050;11.696;2024-03-23T08:25:26;2.03;;;1.53;;
17967;SDS011;9109;48.050;11.696;2024-03-23T08:28:35;2.37;;;1.63;;
17967;SDS011;9109;48.050;11.696;2024-03-23T08:31:39;2.10;;;1.47;;
17967;SDS011;9109;48.050;11.696;2024-03-23T08:34:52;1.40;;;1.23;;
17967;SDS011;9109;48.050;11.696;2024-03-23T08:38:12;4.47;;;1.70;;
17967;SDS011;9109;48.050;11.696;2024-03-23T08:41:17;3.30;;;1.80;;
17967;SDS011;9109;48.050;11.696;2024-03-23T08:44:19;3.67;;;1.90;;
17967;SDS011;9109;48.050;11.696;2024-03-23T08:47:28;3.17;;;2.00;;
17967;SDS011;9109;48.050;11.696;2024-03-23T08:50:30;2.30;;;1.70;;
17967;SDS011;9109;48.050;11.696;2024-03-23T08:53:40;3.17;;;1.90;;
17967;SDS011;9109;48.050;11.696;2024-03-23T08:56:56;6.10;;;3.47;;
17967;SDS011;9109;48.050;11.696;2024-03-23T09:00:23;5.00;;;2.20;;
17967;SDS011;9109;48.050;11.696;2024-03-23T09:03:53;8.47;;;2.60;;
17967;SDS011;9109;48.050;11.696;2024-03-23T09:07:02;4.73;;;2.23;;
17967;SDS011;9109;48.050;11.696;2024-03-23T09:10:11;6.70;;;2.20;;
17967;SDS011;9109;48.050;11.696;2024-03-23T09:13:13;6.50;;;3.27;;
17967;SDS011;9109;48.050;11.696;2024-03-23T09:16:24;5.73;;;2.47;;
17967;SDS011;9109;48.050;11.696;2024-03-23T09:19:34;6.10;;;2.33;;
17967;SDS011;9109;48.050;11.696;2024-03-23T09:22:38;5.77;;;2.40;;
17967;SDS011;9109;48.050;11.696;2024-03-23T09:25:42;3.70;;;2.27;;
17967;SDS011;9109;48.050;11.696;2024-03-23T09:28:55;3.50;;;2.13;;
17967;SDS011;9109;48.050;11.696;2024-03-23T09:31:59;2.93;;;2.10;;
17967;SDS011;9109;48.050;11.696;2024-03-23T09:35:16;4.30;;;2.47;;
17967;SDS011;9109;48.050;11.696;2024-03-23T09:38:19;3.63;;;2.60;;
17967;SDS011;9109;48.050;11.696;2024-03-23T09:41:22;3.97;;;2.10;;
17967;SDS011;9109;48.050;11.696;2024-03-23T09:44:26;4.30;;;2.57;;
17967;SDS011;9109;48.050;11.696;2024-03-23T09:47:29;5.60;;;2.33;;
17967;SDS011;9109;48.050;11.696;2024-03-23T09:50:33;3.63;;;2.13;;
17967;SDS011;9109;48.050;11.696;2024-03-23T09:57:22;2.40;;;1.47;;
17967;SDS011;9109;48.050;11.696;2024-03-23T10:00:47;2.83;;;1.60;;
17967;SDS011;9109;48.050;11.696;2024-03-23T10:04:00;3.73;;;1.37;;
17967;SDS011;9109;48.050;11.696;2024-03-23T10:07:27;1.40;;;1.07;;
17967;SDS011;9109;48.050;11.696;2024-03-23T10:10:50;2.43;;;0.90;;
17967;SDS011;9109;48.050;11.696;2024-03-23T10:14:08;1.40;;;1.20;;
17967;SDS011;9109;48.050;11.696;2024-03-23T10:17:18;1.20;;;0.73;;
17967;SDS011;9109;48.050;11.696;2024-03-23T10:20:20;1.00;;;0.90;;
17967;SDS011;9109;48.050;11.696;2024-03-23T10:23:31;1.93;;;1.13;;
17967;SDS011;9109;48.050;11.696;2024-03-23T10:26:38;1.83;;;0.77;;
17967;SDS011;9109;48.050;11.696;2024-03-23T10:29:49;1.23;;;0.83;;
17967;SDS011;9109;48.050;11.696;2024-03-23T10:33:08;1.47;;;0.80;;
17967;SDS011;9109;48.050;11.696;2024-03-23T10:36:21;2.93;;;1.03;;
17967;SDS011;9109;48.050;11.696;2024-03-23T10:39:26;1.47;;;0.83;;
17967;SDS011;9109;48.050;11.696;2024-03-23T10:42:36;5.07;;;1.00;;
17967;SDS011;9109;48.050;11.696;2024-03-23T10:48:59;1.50;;;0.77;;
17967;SDS011;9109;48.050;11.696;2024-03-23T10:52:08;1.60;;;1.00;;
17967;SDS011;9109;48.050;11.696;2024-03-23T10:55:27;1.87;;;1.00;;
17967;SDS011;9109;48.050;11.696;2024-03-23T10:58:32;0.90;;;0.80;;
17967;SDS011;9109;48.050;11.696;2024-03-23T11:01:41;1.40;;;0.90;;
17967;SDS011;9109;48.050;11.696;2024-03-23T11:05:02;1.67;;;0.87;;
17967;SDS011;9109;48.050;11.696;2024-03-23T11:08:30;3.93;;;1.10;;
17967;SDS011;9109;48.050;11.696;2024-03-23T11:11:53;2.80;;;0.87;;
17967;SDS011;9109;48.050;11.696;2024-03-23T11:14:56;1.70;;;0.90;;
17967;SDS011;9109;48.050;11.696;2024-03-23T11:18:11;1.33;;;0.90;;
17967;SDS011;9109;48.050;11.696;2024-03-23T11:28:30;2.50;;;1.13;;
17967;SDS011;9109;48.050;11.696;2024-03-23T11:31:46;1.10;;;0.90;;
17967;SDS011;9109;48.050;11.696;2024-03-23T11:34:56;1.80;;;0.80;;
17967;SDS011;9109;48.050;11.696;2024-03-23T11:38:05;2.90;;;1.17;;
17967;SDS011;9109;48.050;11.696;2024-03-23T11:41:07;1.47;;;0.80;;
17967;SDS011;9109;48.050;11.696;2024-03-23T11:44:16;1.60;;;0.90;;
17967;SDS011;9109;48.050;11.696;2024-03-23T11:47:21;3.03;;;0.80;;
17967;SDS011;9109;48.050;11.696;2024-03-23T11:50:29;1.57;;;0.83;;
17967;SDS011;9109;48.050;11.696;2024-03-23T11:53:41;1.47;;;1.10;;
17967;SDS011;9109;48.050;11.696;2024-03-23T11:56:55;6.67;;;1.00;;
17967;SDS011;9109;48.050;11.696;2024-03-23T12:00:24;1.27;;;0.90;;
17967;SDS011;9109;48.050;11.696;2024-03-23T12:03:33;1.87;;;1.00;;
17967;SDS011;9109;48.050;11.696;2024-03-23T12:06:43;1.47;;;1.10;;
17967;SDS011;9109;48.050;11.696;2024-03-23T12:10:02;2.07;;;1.30;;
17967;SDS011;9109;48.050;11.696;2024-03-23T12:13:05;3.13;;;1.13;;
17967;SDS011;9109;48.050;11.696;2024-03-23T12:16:12;2.10;;;1.20;;
17967;SDS011;9109;48.050;11.696;2024-03-23T12:19:15;7.77;;;1.90;;
17967;SDS011;9109;48.050;11.696;2024-03-23T12:22:31;3.07;;;1.20;;
17967;SDS011;9109;48.050;11.696;2024-03-23T12:25:35;2.97;;;1.60;;
17967;SDS011;9109;48.050;11.696;2024-03-23T12:28:40;3.93;;;1.60;;
17967;SDS011;9109;48.050;11.696;2024-03-23T12:31:45;2.67;;;1.47;;
17967;SDS011;9109;48.050;11.696;2024-03-23T12:34:50;4.37;;;1.63;;
17967;SDS011;9109;48.050;11.696;2024-03-23T12:38:02;3.37;;;1.70;;
17967;SDS011;9109;48.050;11.696;2024-03-23T12:41:07;4.47;;;1.53;;
17967;SDS011;9109;48.050;11.696;2024-03-23T12:44:14;4.40;;;1.37;;
17967;SDS011;9109;48.050;11.696;2024-03-23T12:47:17;3.60;;;1.63;;
17967;SDS011;9109;48.050;11.696;2024-03-23T12:50:24;5.50;;;1.60;;
17967;SDS011;9109;48.050;11.696;2024-03-23T12:53:30;4.17;;;1.70;;
17967;SDS011;9109;48.050;11.696;2024-03-23T12:56:43;5.20;;;1.57;;
17967;SDS011;9109;48.050;11.696;2024-03-23T12:59:45;4.00;;;1.50;;
17967;SDS011;9109;48.050;11.696;2024-03-23T13:02:53;6.10;;;1.57;;
17967;SDS011;9109;48.050;11.696;2024-03-23T13:05:55;7.30;;;1.70;;
17967;SDS011;9109;48.050;11.696;2024-03-23T13:09:12;4.60;;;1.57;;
17967;SDS011;9109;48.050;11.696;2024-03-23T13:15:51;7.20;;;1.73;;
17967;SDS011;9109;48.050;11.696;2024-03-23T13:22:11;3.87;;;1.83;;
17967;SDS011;9109;48.050;11.696;2024-03-23T13:25:13;7.03;;;1.60;;
17967;SDS011;9109;48.050;11.696;2024-03-23T13:28:21;4.63;;;1.93;;
17967;SDS011;9109;48.050;11.696;2024-03-23T13:31:23;4.53;;;1.70;;
17967;SDS011;9109;48.050;11.696;2024-03-23T13:34:25;6.23;;;1.90;;
17967;SDS011;9109;48.050;11.696;2024-03-23T13:37:32;7.17;;;2.00;;
17967;SDS011;9109;48.050;11.696;2024-03-23T13:40:39;5.23;;;1.80;;
17967;SDS011;9109;48.050;11.696;2024-03-23T13:43:42;3.77;;;1.87;;
17967;SDS011;9109;48.050;11.696;2024-03-23T13:46:43;7.03;;;1.73;;
17967;SDS011;9109;48.050;11.696;2024-03-23T13:49:47;4.03;;;1.90;;
17967;SDS011;9109;48.050;11.696;2024-03-23T13:52:52;3.87;;;2.10;;
17967;SDS011;9109;48.050;11.696;2024-03-23T13:56:00;8.00;;;2.30;;
17967;SDS011;9109;48.050;11.696;2024-03-23T13:59:03;3.03;;;1.70;;
17967;SDS011;9109;48.050;11.696;2024-03-23T14:02:19;8.60;;;2.20;;
17967;SDS011;9109;48.050;11.696;2024-03-23T14:05:31;5.93;;;2.27;;
17967;SDS011;9109;48.050;11.696;2024-03-23T14:08:40;3.33;;;1.93;;
17967;SDS011;9109;48.050;11.696;2024-03-23T14:11:43;3.10;;;1.50;;
17967;SDS011;9109;48.050;11.696;2024-03-23T14:14:44;1.73;;;1.23;;
17967;SDS011;9109;48.050;11.696;2024-03-23T14:17:52;3.57;;;1.67;;
17967;SDS011;9109;48.050;11.696;2024-03-23T14:20:57;7.60;;;1.53;;
17967;SDS011;9109;48.050;11.696;2024-03-23T14:24:16;3.63;;;1.60;;
17967;SDS011;9109;48.050;11.696;2024-03-23T14:27:18;3.43;;;1.63;;
17967;SDS011;9109;48.050;11.696;2024-03-23T14:30:21;6.07;;;2.00;;
17967;SDS011;9109;48.050;11.696;2024-03-23T14:33:22;7.70;;;2.47;;
17967;SDS011;9109;48.050;11.696;2024-03-23T14:36:34;6.60;;;2.50;;
17967;SDS011;9109;48.050;11.696;2024-03-23T14:39:40;5.27;;;2.30;;
17967;SDS011;9109;48.050;11.696;2024-03-23T14:42:44;9.67;;;2.40;;
17967;SDS011;9109;48.050;11.696;2024-03-23T14:49:14;8.83;;;2.60;;
17967;SDS011;9109;48.050;11.696;2024-03-23T14:52:19;5.33;;;2.80;;
17967;SDS011;9109;48.050;11.696;2024-03-23T14:55:23;8.67;;;3.03;;
17967;SDS011;9109;48.050;11.696;2024-03-23T14:58:30;9.77;;;2.40;;
17967;SDS011;9109;48.050;11.696;2024-03-23T15:01:37;7.63;;;2.90;;
17967;SDS011;9109;48.050;11.696;2024-03-23T15:04:42;6.57;;;2.60;;
17967;SDS011;9109;48.050;11.696;2024-03-23T15:07:43;9.97;;;2.83;;
17967;SDS011;9109;48.050;11.696;2024-03-23T15:11:01;4.53;;;1.90;;
17967;SDS011;9109;48.050;11.696;2024-03-23T15:14:14;7.70;;;1.70;;
17967;SDS011;9109;48.050;11.696;2024-03-23T15:17:23;4.37;;;1.73;;
17967;SDS011;9109;48.050;11.696;2024-03-23T15:20:28;8.73;;;1.93;;
17967;SDS011;9109;48.050;11.696;2024-03-23T15:23:34;5.40;;;1.70;;
17967;SDS011;9109;48.050;11.696;2024-03-23T15:26:41;4.13;;;1.67;;
17967;SDS011;9109;48.050;11.696;2024-03-23T15:29:42;10.93;;;2.47;;
17967;SDS011;9109;48.050;11.696;2024-03-23T15:32:51;7.53;;;2.33;;
17967;SDS011;9109;48.050;11.696;2024-03-23T15:35:53;8.53;;;1.93;;
17967;SDS011;9109;48.050;11.696;2024-03-23T15:38:58;5.10;;;1.80;;
17967;SDS011;9109;48.050;11.696;2024-03-23T15:42:01;8.10;;;2.07;;
17967;SDS011;9109;48.050;11.696;2024-03-23T15:45:06;5.23;;;2.00;;
17967;SDS011;9109;48.050;11.696;2024-03-23T15:48:14;6.37;;;1.70;;
17967;SDS011;9109;48.050;11.696;2024-03-23T15:51:19;6.47;;;2.27;;
17967;SDS011;9109;48.050;11.696;2024-03-23T15:54:24;9.93;;;2.30;;
17967;SDS011;9109;48.050;11.696;2024-03-23T15:57:54;4.63;;;1.87;;
17967;SDS011;9109;48.050;11.696;2024-03-23T16:01:02;6.73;;;1.70;;
17967;SDS011;9109;48.050;11.696;2024-03-23T16:07:23;6.13;;;2.00;;
17967;SDS011;9109;48.050;11.696;2024-03-23T16:10:32;6.67;;;2.30;;
17967;SDS011;9109;48.050;11.696;2024-03-23T16:13:39;5.30;;;2.40;;
17967;SDS011;9109;48.050;11.696;2024-03-23T16:16:43;12.87;;;2.13;;
17967;SDS011;9109;48.050;11.696;2024-03-23T16:19:44;6.10;;;2.47;;
17967;SDS011;9109;48.050;11.696;2024-03-23T16:22:48;4.43;;;2.20;;
17967;SDS011;9109;48.050;11.696;2024-03-23T16:25:55;3.73;;;1.90;;
17967;SDS011;9109;48.050;11.696;2024-03-23T16:29:05;5.00;;;1.83;;
17967;SDS011;9109;48.050;11.696;2024-03-23T16:32:12;4.77;;;1.93;;
17967;SDS011;9109;48.050;11.696;2024-03-23T16:35:14;3.63;;;1.87;;
17967;SDS011;9109;48.050;11.696;2024-03-23T16:38:25;3.87;;;1.83;;
17967;SDS011;9109;48.050;11.696;2024-03-23T16:41:36;2.30;;;1.60;;
17967;SDS011;9109;48.050;11.696;2024-03-23T16:44:49;5.40;;;2.03;;
17967;SDS011;9109;48.050;11.696;2024-03-23T16:47:52;5.80;;;1.63;;
17967;SDS011;9109;48.050;11.696;2024-03-23T16:50:58;6.87;;;2.27;;
17967;SDS011;9109;48.050;11.696;2024-03-23T16:54:09;4.00;;;1.97;;
17967;SDS011;9109;48.050;11.696;2024-03-23T16:57:17;3.13;;;1.90;;
17967;SDS011;9109;48.050;11.696;2024-03-23T17:00:21;8.60;;;2.33;;
17967;SDS011;9109;48.050;11.696;2024-03-23T17:03:23;4.57;;;2.00;;
17967;SDS011;9109;48.050;11.696;2024-03-23T17:06:45;8.17;;;1.77;;
17967;SDS011;9109;48.050;11.696;2024-03-23T17:09:59;2.83;;;1.50;;
17967;SDS011;9109;48.050;11.696;2024-03-23T17:13:03;9.03;;;1.93;;
17967;SDS011;9109;48.050;11.696;2024-03-23T17:16:20;2.33;;;1.53;;
17967;SDS011;9109;48.050;11.696;2024-03-23T17:19:39;3.67;;;1.70;;
17967;SDS011;9109;48.050;11.696;2024-03-23T17:23:06;4.07;;;1.87;;
17967;SDS011;9109;48.050;11.696;2024-03-23T17:26:08;4.93;;;2.03;;
17967;SDS011;9109;48.050;11.696;2024-03-23T17:29:23;4.87;;;1.93;;
17967;SDS011;9109;48.050;11.696;2024-03-23T17:36:09;4.20;;;1.90;;
17967;SDS011;9109;48.050;11.696;2024-03-23T17:42:43;4.43;;;1.70;;
17967;SDS011;9109;48.050;11.696;2024-03-23T17:46:31;2.90;;;1.50;;
17967;SDS011;9109;48.050;11.696;2024-03-23T17:49:43;5.77;;;1.30;;
17967;SDS011;9109;48.050;11.696;2024-03-23T17:56:11;2.40;;;1.40;;
17967;SDS011;9109;48.050;11.696;2024-03-23T17:59:20;2.47;;;1.00;;
17967;SDS011;9109;48.050;11.696;2024-03-23T18:02:22;3.17;;;1.10;;
17967;SDS011;9109;48.050;11.696;2024-03-23T18:05:23;2.57;;;1.40;;
17967;SDS011;9109;48.050;11.696;2024-03-23T18:08:27;2.37;;;1.10;;
17967;SDS011;9109;48.050;11.696;2024-03-23T18:11:29;2.33;;;1.20;;
17967;SDS011;9109;48.050;11.696;2024-03-23T18:15:54;6.77;;;1.37;;
17967;SDS011;9109;48.050;11.696;2024-03-23T18:18:03;2.33;;;1.27;;
17967;SDS011;9109;48.050;11.696;2024-03-23T18:21:07;3.47;;;1.27;;
17967;SDS011;9109;48.050;11.696;2024-03-23T18:24:25;2.20;;;1.60;;
17967;SDS011;9109;48.050;11.696;2024-03-23T18:27:38;2.63;;;1.70;;
17967;SDS011;9109;48.050;11.696;2024-03-23T18:31:00;5.47;;;1.90;;
17967;SDS011;9109;48.050;11.696;2024-03-23T18:34:10;3.73;;;1.60;;
17967;SDS011;9109;48.050;11.696;2024-03-23T18:37:15;2.33;;;1.60;;
17967;SDS011;9109;48.050;11.696;2024-03-23T18:40:28;1.63;;;1.30;;
17967;SDS011;9109;48.050;11.696;2024-03-23T18:47:10;2.93;;;1.30;;
17967;SDS011;9109;48.050;11.696;2024-03-23T18:50:15;2.77;;;1.30;;
17967;SDS011;9109;48.050;11.696;2024-03-23T18:53:25;1.60;;;1.10;;
17967;SDS011;9109;48.050;11.696;2024-03-23T18:56:44;7.13;;;1.77;;
17967;SDS011;9109;48.050;11.696;2024-03-23T18:59:49;5.90;;;1.33;;
17967;SDS011;9109;48.050;11.696;2024-03-23T19:03:00;5.93;;;1.13;;
17967;SDS011;9109;48.050;11.696;2024-03-23T19:06:04;5.90;;;1.13;;
17967;SDS011;9109;48.050;11.696;2024-03-23T19:09:11;4.50;;;1.50;;
17967;SDS011;9109;48.050;11.696;2024-03-23T19:12:16;1.03;;;0.87;;
17967;SDS011;9109;48.050;11.696;2024-03-23T19:15:21;2.37;;;1.00;;
17967;SDS011;9109;48.050;11.696;2024-03-23T19:18:44;2.20;;;1.10;;
17967;SDS011;9109;48.050;11.696;2024-03-23T19:21:51;2.57;;;1.00;;
17967;SDS011;9109;48.050;11.696;2024-03-23T19:24:52;2.60;;;1.33;;
17967;SDS011;9109;48.050;11.696;2024-03-23T19:28:10;4.30;;;1.30;;
17967;SDS011;9109;48.050;11.696;2024-03-23T19:31:28;1.60;;;1.20;;
17967;SDS011;9109;48.050;11.696;2024-03-23T19:34:37;3.67;;;1.50;;
17967;SDS011;9109;48.050;11.696;2024-03-23T19:37:39;1.80;;;1.30;;
17967;SDS011;9109;48.050;11.696;2024-03-23T19:40:57;5.37;;;1.50;;
17967;SDS011;9109;48.050;11.696;2024-03-23T19:44:21;2.20;;;1.40;;
17967;SDS011;9109;48.050;11.696;2024-03-23T19:47:26;5.57;;;2.10;;
17967;SDS011;9109;48.050;11.696;2024-03-23T19:50:41;2.93;;;1.60;;
17967;SDS011;9109;48.050;11.696;2024-03-23T19:53:54;5.30;;;1.83;;
17967;SDS011;9109;48.050;11.696;2024-03-23T19:56:56;2.47;;;1.47;;
17967;SDS011;9109;48.050;11.696;2024-03-23T20:00:06;5.33;;;1.40;;
17967;SDS011;9109;48.050;11.696;2024-03-23T20:03:15;2.43;;;1.40;;
17967;SDS011;9109;48.050;11.696;2024-03-23T20:06:27;2.23;;;1.00;;
17967;SDS011;9109;48.050;11.696;2024-03-23T20:09:33;1.30;;;1.10;;
17967;SDS011;9109;48.050;11.696;2024-03-23T20:12:39;2.13;;;1.10;;
17967;SDS011;9109;48.050;11.696;2024-03-23T20:15:52;3.23;;;1.27;;
17967;SDS011;9109;48.050;11.696;2024-03-23T20:19:01;7.53;;;1.43;;
17967;SDS011;9109;48.050;11.696;2024-03-23T20:22:06;4.33;;;1.57;;
17967;SDS011;9109;48.050;11.696;2024-03-23T20:25:08;4.10;;;1.10;;